createdAt,value
2018-08-20T00:00:47.414Z,9.57
2018-08-20T00:03:15.847Z,10.27
2018-08-20T00:05:48.503Z,11.10
2018-08-20T00:08:16.837Z,11.40
2018-08-20T00:10:45.188Z,11.63
2018-08-20T00:13:13.558Z,11.10
2018-08-20T00:15:41.928Z,11.43
2018-08-20T00:18:15.729Z,13.03
2018-08-20T00:20:44.032Z,13.17
2018-08-20T00:23:12.351Z,13.10
2018-08-20T00:25:40.692Z,12.83
2018-08-20T00:28:09.023Z,12.70
2018-08-20T00:30:37.373Z,12.83
2018-08-20T00:33:05.715Z,10.80
2018-08-20T00:35:34.004Z,9.90
2018-08-20T00:38:02.340Z,10.03
2018-08-20T00:40:30.884Z,8.40
2018-08-20T00:42:59.281Z,7.83
2018-08-20T00:45:27.631Z,7.70
2018-08-20T00:47:55.935Z,6.83
2018-08-20T00:50:24.308Z,7.30
2018-08-20T00:52:52.609Z,7.20
2018-08-20T00:55:20.933Z,6.87
2018-08-20T00:57:49.304Z,7.20
2018-08-20T01:00:17.648Z,6.87
2018-08-20T01:02:45.983Z,7.60
2018-08-20T01:05:14.363Z,7.90
2018-08-20T01:07:42.683Z,7.53
2018-08-20T01:10:11.056Z,7.97
2018-08-20T01:12:39.409Z,7.90
2018-08-20T01:15:07.748Z,8.60
2018-08-20T01:17:36.108Z,8.20
2018-08-20T01:20:04.578Z,8.47
2018-08-20T01:22:32.904Z,8.13
2018-08-20T01:25:01.249Z,8.63
2018-08-20T01:27:30.261Z,9.00
2018-08-20T01:29:58.644Z,8.03
2018-08-20T01:32:26.999Z,8.53
2018-08-20T01:34:59.811Z,8.20
2018-08-20T01:37:28.178Z,7.67
2018-08-20T01:39:56.516Z,8.20
2018-08-20T01:42:24.847Z,7.80
2018-08-20T01:44:53.192Z,7.97
2018-08-20T01:47:21.513Z,7.80
2018-08-20T01:49:49.834Z,7.73
2018-08-20T01:52:18.252Z,7.17
2018-08-20T01:54:46.584Z,7.30
2018-08-20T01:57:14.920Z,6.87
2018-08-20T01:59:43.319Z,6.73
2018-08-20T02:02:11.737Z,7.40
2018-08-20T02:04:40.083Z,6.60
2018-08-20T02:07:08.671Z,7.10
2018-08-20T02:09:37.319Z,7.03
2018-08-20T02:12:05.808Z,8.40
2018-08-20T02:14:34.216Z,8.60
2018-08-20T02:17:02.568Z,7.37
2018-08-20T02:19:30.927Z,8.03
2018-08-20T02:21:59.206Z,8.57
2018-08-20T02:24:27.531Z,8.57
2018-08-20T02:26:55.871Z,8.77
2018-08-20T02:29:24.223Z,8.60
2018-08-20T02:31:52.590Z,9.77
2018-08-20T02:34:21.642Z,8.63
2018-08-20T02:45:47.203Z,9.63
2018-08-20T02:48:16.041Z,10.63
2018-08-20T02:50:45.073Z,11.17
2018-08-20T02:53:14.070Z,11.67
2018-08-20T02:55:43.125Z,11.70
2018-08-20T02:58:12.262Z,12.90
2018-08-20T03:00:41.323Z,11.83
2018-08-20T03:03:10.570Z,12.03
2018-08-20T03:05:39.836Z,12.90
2018-08-20T03:08:08.870Z,12.63
2018-08-20T03:10:37.878Z,13.27
2018-08-20T03:13:06.833Z,13.60
2018-08-20T03:15:35.865Z,12.50
2018-08-20T03:18:04.985Z,13.50
2018-08-20T03:20:34.050Z,13.60
2018-08-20T03:23:02.993Z,12.83
2018-08-20T03:25:31.878Z,14.90
2018-08-20T03:28:00.596Z,14.37
2018-08-20T03:30:29.647Z,15.50
2018-08-20T03:32:58.146Z,16.67
2018-08-20T03:35:26.553Z,16.23
2018-08-20T03:37:55.259Z,16.83
2018-08-20T03:40:23.600Z,18.47
2018-08-20T03:42:51.953Z,18.90
2018-08-20T03:45:20.334Z,17.77
2018-08-20T03:47:48.665Z,19.30
2018-08-20T03:50:17.076Z,19.00
2018-08-20T03:52:46.086Z,19.37
2018-08-20T03:55:14.456Z,19.30
2018-08-20T03:57:43.034Z,19.30
2018-08-20T04:00:12.065Z,20.63
2018-08-20T04:02:40.420Z,19.47
2018-08-20T04:05:09.753Z,20.20
2018-08-20T04:07:38.074Z,20.13
2018-08-20T04:10:06.464Z,21.90
2018-08-20T04:12:34.830Z,22.10
2018-08-20T04:15:03.193Z,22.73
2018-08-20T04:17:31.535Z,22.63
2018-08-20T04:19:59.932Z,23.60
2018-08-20T04:23:57.716Z,23.43
2018-08-20T04:26:26.125Z,22.73
2018-08-20T04:28:54.496Z,23.07
2018-08-20T04:31:22.861Z,24.10
2018-08-20T04:33:51.247Z,23.93
2018-08-20T04:36:19.636Z,24.33
2018-08-20T04:38:48.108Z,25.50
2018-08-20T04:41:16.509Z,24.00
2018-08-20T04:43:44.880Z,24.03
2018-08-20T04:46:13.229Z,26.23
2018-08-20T04:48:41.624Z,25.80
2018-08-20T04:51:10.276Z,27.40
2018-08-20T04:53:38.468Z,26.73
2018-08-20T04:56:06.808Z,26.57
2018-08-20T04:58:35.178Z,26.10
2018-08-20T05:01:03.537Z,27.97
2018-08-20T05:03:31.901Z,27.00
2018-08-20T05:06:00.253Z,26.93
2018-08-20T05:08:28.649Z,26.10
2018-08-20T05:10:57.029Z,27.57
2018-08-20T05:13:25.384Z,25.97
2018-08-20T05:15:53.714Z,26.80
2018-08-20T05:18:22.059Z,26.93
2018-08-20T05:20:50.448Z,26.77
2018-08-20T05:23:18.813Z,25.83
2018-08-20T05:25:47.141Z,27.00
2018-08-20T05:28:15.481Z,26.57
2018-08-20T05:30:43.864Z,25.77
2018-08-20T05:33:12.264Z,26.07
2018-08-20T05:35:40.583Z,27.03
2018-08-20T05:38:08.908Z,26.90
2018-08-20T05:40:37.245Z,29.60
2018-08-20T05:43:05.997Z,28.73
2018-08-20T05:45:34.388Z,26.03
2018-08-20T05:48:02.681Z,27.80
2018-08-20T05:50:31.120Z,26.97
2018-08-20T05:52:59.477Z,30.60
2018-08-20T05:55:27.921Z,27.47
2018-08-20T05:57:58.003Z,26.73
2018-08-20T06:00:26.370Z,28.47
2018-08-20T06:02:54.707Z,27.50
2018-08-20T06:05:23.053Z,27.17
2018-08-20T06:07:51.446Z,29.40
2018-08-20T06:10:19.782Z,26.47
2018-08-20T06:12:48.263Z,29.67
2018-08-20T06:15:16.683Z,27.00
2018-08-20T06:17:44.978Z,27.53
2018-08-20T06:20:16.734Z,28.83
2018-08-20T06:22:45.452Z,28.23
2018-08-20T06:25:14.348Z,27.13
2018-08-20T06:27:43.119Z,28.20
2018-08-20T06:30:14.636Z,28.37
2018-08-20T06:32:43.042Z,27.03
2018-08-20T06:35:11.953Z,27.10
2018-08-20T06:37:40.424Z,28.07
2018-08-20T06:40:12.033Z,27.77
2018-08-20T06:42:40.427Z,26.43
2018-08-20T06:45:14.856Z,28.53
2018-08-20T06:47:43.926Z,27.73
2018-08-20T06:50:12.497Z,26.63
2018-08-20T06:52:41.908Z,28.10
2018-08-20T06:55:10.281Z,26.17
2018-08-20T06:57:38.614Z,27.33
2018-08-20T07:00:08.490Z,25.93
2018-08-20T07:02:37.755Z,26.97
2018-08-20T07:05:06.914Z,24.20
2018-08-20T07:07:35.853Z,23.97
2018-08-20T07:10:04.983Z,22.60
2018-08-20T07:12:33.330Z,23.00
2018-08-20T07:15:01.677Z,22.33
2018-08-20T07:17:30.068Z,21.20
2018-08-20T07:19:58.452Z,19.70
2018-08-20T07:22:27.528Z,21.47
2018-08-20T07:24:55.882Z,20.33
2018-08-20T07:27:24.251Z,21.00
2018-08-20T07:29:52.700Z,19.73
2018-08-20T07:32:21.059Z,18.90
2018-08-20T07:34:49.427Z,20.07
2018-08-20T07:37:20.589Z,18.27
2018-08-20T07:39:49.094Z,18.53
2018-08-20T07:42:17.497Z,17.90
2018-08-20T07:44:46.730Z,17.70
2018-08-20T07:47:15.072Z,16.73
2018-08-20T07:49:43.501Z,16.10
2018-08-20T07:52:13.418Z,14.97
2018-08-20T07:54:42.412Z,14.87
2018-08-20T07:57:10.998Z,14.90
2018-08-20T07:59:39.517Z,13.47
2018-08-20T08:02:08.408Z,14.77
2018-08-20T08:04:36.781Z,13.37
2018-08-20T08:07:05.218Z,12.70
2018-08-20T08:09:33.584Z,12.50
2018-08-20T08:12:02.004Z,13.33
2018-08-20T08:14:30.457Z,11.70
2018-08-20T08:16:59.580Z,10.43
2018-08-20T08:19:28.019Z,9.50
2018-08-20T08:21:56.414Z,8.00
2018-08-20T08:24:24.831Z,7.10
2018-08-20T08:26:53.199Z,6.57
2018-08-20T08:29:21.562Z,6.63
2018-08-20T08:31:50.700Z,6.50
2018-08-20T08:34:20.199Z,6.30
2018-08-20T08:36:48.613Z,6.77
2018-08-20T08:39:16.992Z,6.77
2018-08-20T08:41:45.381Z,6.23
2018-08-20T08:44:14.000Z,6.57
2018-08-20T08:46:42.412Z,6.23
2018-08-20T08:49:10.796Z,6.17
2018-08-20T08:51:39.216Z,5.73
2018-08-20T08:54:07.559Z,5.93
2018-08-20T08:56:35.945Z,6.30
2018-08-20T08:59:04.390Z,5.90
2018-08-20T09:01:32.813Z,6.53
2018-08-20T09:04:01.168Z,6.53
2018-08-20T09:06:29.512Z,5.90
2018-08-20T09:08:57.921Z,6.30
2018-08-20T09:11:26.293Z,6.33
2018-08-20T09:13:54.725Z,7.03
2018-08-20T09:16:23.024Z,5.40
2018-08-20T09:18:51.434Z,6.10
2018-08-20T09:21:19.803Z,5.60
2018-08-20T09:23:48.156Z,5.50
2018-08-20T09:26:16.501Z,6.10
2018-08-20T09:28:44.868Z,5.43
2018-08-20T09:31:13.204Z,5.50
2018-08-20T09:33:41.636Z,5.87
2018-08-20T09:36:10.006Z,5.17
2018-08-20T09:38:38.403Z,4.87
2018-08-20T09:41:06.841Z,4.67
2018-08-20T09:43:36.960Z,4.30
2018-08-20T09:46:05.315Z,4.97
2018-08-20T09:48:33.649Z,4.37
2018-08-20T09:51:02.024Z,5.20
2018-08-20T09:53:30.376Z,5.07
2018-08-20T09:55:58.739Z,4.70
2018-08-20T09:58:27.085Z,4.90
2018-08-20T10:00:55.455Z,4.93
2018-08-20T10:03:23.834Z,4.50
2018-08-20T10:05:52.220Z,4.20
2018-08-20T10:08:20.531Z,3.60
2018-08-20T10:10:48.853Z,3.90
2018-08-20T10:13:17.157Z,3.40
2018-08-20T10:15:45.546Z,3.70
2018-08-20T10:18:13.957Z,3.57
2018-08-20T10:20:42.964Z,3.47
2018-08-20T10:23:11.293Z,3.47
2018-08-20T10:25:40.473Z,3.50
2018-08-20T10:28:09.546Z,3.60
2018-08-20T10:30:39.426Z,3.20
2018-08-20T10:33:07.763Z,2.90
2018-08-20T10:35:38.606Z,3.20
2018-08-20T10:38:07.943Z,3.47
2018-08-20T10:40:36.965Z,2.80
2018-08-20T10:43:05.917Z,3.07
2018-08-20T10:45:39.705Z,3.37
2018-08-20T10:48:08.044Z,3.27
2018-08-20T10:50:36.424Z,2.93
2018-08-20T10:53:06.712Z,2.93
2018-08-20T10:55:35.066Z,2.90
2018-08-20T10:58:03.425Z,3.63
2018-08-20T11:00:31.741Z,3.30
2018-08-20T11:03:00.075Z,2.93
2018-08-20T11:05:28.382Z,2.57
2018-08-20T11:07:58.026Z,2.50
2018-08-20T11:11:55.820Z,3.40
2018-08-20T11:14:24.128Z,3.63
2018-08-20T11:16:52.463Z,2.97
2018-08-20T11:19:20.785Z,2.47
2018-08-20T11:21:49.104Z,3.23
2018-08-20T11:24:17.422Z,3.47
2018-08-20T11:26:45.730Z,2.60
2018-08-20T11:29:14.080Z,3.17
2018-08-20T11:31:42.414Z,2.80
2018-08-20T11:34:10.817Z,2.80
2018-08-20T11:36:39.151Z,2.93
2018-08-20T11:39:07.995Z,2.50
2018-08-20T11:41:36.307Z,3.10
2018-08-20T11:44:05.297Z,2.50
2018-08-20T11:46:33.652Z,2.30
2018-08-20T11:49:02.049Z,2.60
2018-08-20T11:51:30.444Z,2.53
2018-08-20T11:53:58.797Z,1.67
2018-08-20T11:56:27.134Z,1.90
2018-08-20T11:58:55.498Z,2.40
2018-08-20T12:01:23.878Z,2.33
2018-08-20T12:03:54.272Z,2.30
2018-08-20T12:06:23.108Z,2.53
2018-08-20T12:08:52.006Z,2.40
2018-08-20T12:11:20.368Z,2.40
2018-08-20T12:13:49.388Z,2.10
2018-08-20T12:16:17.686Z,2.23
2018-08-20T12:18:46.045Z,2.53
2018-08-20T12:21:14.413Z,2.33
2018-08-20T12:23:43.715Z,2.17
2018-08-20T12:26:12.062Z,2.50
2018-08-20T12:28:40.405Z,2.20
2018-08-20T12:31:08.826Z,2.33
2018-08-20T12:33:37.213Z,2.10
2018-08-20T12:36:05.585Z,2.70
2018-08-20T12:38:34.087Z,2.60
2018-08-20T12:41:02.468Z,2.50
2018-08-20T12:43:30.829Z,2.37
2018-08-20T12:45:59.236Z,2.03
2018-08-20T12:48:27.535Z,1.97
2018-08-20T12:50:56.993Z,1.90
2018-08-20T12:53:25.394Z,2.27
2018-08-20T12:55:53.745Z,1.87
2018-08-20T12:58:22.222Z,2.13
2018-08-20T13:00:50.525Z,2.20
2018-08-20T13:03:18.892Z,2.67
2018-08-20T13:05:47.249Z,2.40
2018-08-20T13:08:15.630Z,2.70
2018-08-20T13:10:44.075Z,2.43
2018-08-20T13:13:12.571Z,2.37
2018-08-20T13:15:40.922Z,2.30
2018-08-20T13:18:09.416Z,2.20
2018-08-20T13:20:37.756Z,2.20
2018-08-20T13:23:06.580Z,1.80
2018-08-20T13:25:34.934Z,1.90
2018-08-20T13:28:03.612Z,1.93
2018-08-20T13:30:32.007Z,1.70
2018-08-20T13:33:00.320Z,1.87
2018-08-20T13:35:28.733Z,1.80
2018-08-20T13:37:57.104Z,1.90
2018-08-20T13:40:25.476Z,1.70
2018-08-20T13:42:53.890Z,1.47
2018-08-20T13:45:22.250Z,1.73
2018-08-20T13:47:50.573Z,1.50
2018-08-20T13:50:19.000Z,1.60
2018-08-20T13:52:47.861Z,1.60
2018-08-20T13:55:16.226Z,1.50
2018-08-20T13:57:47.802Z,1.40
2018-08-20T14:00:17.696Z,1.30
2018-08-20T14:02:46.120Z,1.73
2018-08-20T14:05:15.510Z,1.47
2018-08-20T14:07:43.963Z,1.67
2018-08-20T14:10:12.463Z,1.97
2018-08-20T14:12:41.572Z,2.30
2018-08-20T14:15:11.094Z,1.90
2018-08-20T14:17:40.306Z,1.67
2018-08-20T14:20:10.921Z,2.20
2018-08-20T14:22:39.602Z,1.97
2018-08-20T14:25:08.089Z,1.87
2018-08-20T14:27:36.457Z,2.10
2018-08-20T14:30:07.975Z,1.80
2018-08-20T14:32:36.388Z,1.83
2018-08-20T14:35:06.409Z,1.90
2018-08-20T14:37:34.774Z,1.87
2018-08-20T14:40:03.407Z,1.73
2018-08-20T14:42:32.135Z,1.53
2018-08-20T14:45:00.612Z,2.50
2018-08-20T14:47:29.042Z,1.60
2018-08-20T14:49:57.668Z,1.50
2018-08-20T14:52:26.114Z,1.60
2018-08-20T14:54:54.529Z,1.50
2018-08-20T14:57:22.913Z,1.47
2018-08-20T14:59:51.339Z,1.60
2018-08-20T15:02:19.794Z,1.77
2018-08-20T15:04:48.188Z,1.80
2018-08-20T15:07:16.504Z,1.60
2018-08-20T15:09:44.866Z,1.57
2018-08-20T15:12:13.159Z,1.30
2018-08-20T15:14:41.523Z,1.53
2018-08-20T15:17:09.933Z,1.40
2018-08-20T15:19:38.285Z,1.27
2018-08-20T15:22:06.632Z,1.03
2018-08-20T15:24:35.048Z,1.13
2018-08-20T15:27:03.761Z,1.27
2018-08-20T15:29:32.149Z,1.20
2018-08-20T15:32:00.501Z,1.60
2018-08-20T15:34:28.869Z,1.20
2018-08-20T15:36:57.293Z,1.00
2018-08-20T15:39:25.673Z,1.70
2018-08-20T15:41:54.025Z,1.10
2018-08-20T15:44:22.416Z,1.00
2018-08-20T15:46:50.796Z,1.03
2018-08-20T15:49:19.103Z,1.43
2018-08-20T15:51:47.405Z,1.30
2018-08-20T15:54:15.805Z,1.13
2018-08-20T15:56:44.141Z,1.07
2018-08-20T15:59:12.476Z,1.50
2018-08-20T16:01:40.828Z,1.17
2018-08-20T16:04:09.160Z,1.60
2018-08-20T16:06:37.634Z,1.60
2018-08-20T16:09:07.632Z,1.67
2018-08-20T16:11:35.996Z,1.30
2018-08-20T16:14:04.393Z,1.00
2018-08-20T16:16:32.775Z,1.40
2018-08-20T16:19:01.145Z,0.90
2018-08-20T16:21:29.525Z,1.10
2018-08-20T16:23:57.900Z,1.30
2018-08-20T16:26:26.289Z,1.30
2018-08-20T16:28:54.658Z,1.43
2018-08-20T16:31:23.005Z,1.17
2018-08-20T16:33:51.714Z,1.40
2018-08-20T16:36:20.039Z,1.43
2018-08-20T16:38:48.372Z,1.30
2018-08-20T16:41:16.797Z,1.60
2018-08-20T16:43:45.247Z,1.33
2018-08-20T16:46:13.641Z,1.53
2018-08-20T16:48:42.887Z,1.63
2018-08-20T16:51:11.278Z,2.20
2018-08-20T16:53:39.791Z,2.53
2018-08-20T16:56:08.264Z,2.43
2018-08-20T16:58:36.971Z,1.37
2018-08-20T17:01:06.538Z,1.40
2018-08-20T17:03:34.965Z,1.40
2018-08-20T17:06:03.306Z,1.40
2018-08-20T17:08:32.438Z,1.30
2018-08-20T17:11:01.125Z,1.37
2018-08-20T17:13:30.127Z,1.40
2018-08-20T17:15:58.525Z,1.50
2018-08-20T17:18:27.181Z,1.40
2018-08-20T17:20:55.660Z,1.47
2018-08-20T17:23:24.977Z,1.33
2018-08-20T17:25:55.576Z,1.43
2018-08-20T17:28:25.172Z,1.20
2018-08-20T17:30:56.056Z,1.33
2018-08-20T17:33:24.528Z,1.30
2018-08-20T17:35:52.924Z,1.27
2018-08-20T17:38:21.277Z,1.30
2018-08-20T17:40:49.707Z,0.90
2018-08-20T17:43:18.018Z,1.30
2018-08-20T17:45:46.414Z,1.07
2018-08-20T17:48:19.486Z,1.40
2018-08-20T17:50:48.180Z,1.40
2018-08-20T17:53:16.495Z,1.10
2018-08-20T17:55:44.905Z,1.30
2018-08-20T17:58:14.221Z,1.20
2018-08-20T18:00:46.792Z,1.47
2018-08-20T18:03:22.052Z,1.47
2018-08-20T18:05:55.099Z,1.27
2018-08-20T18:08:24.730Z,1.00
2018-08-20T18:10:53.092Z,1.30
2018-08-20T18:13:34.079Z,1.20
2018-08-20T18:16:04.632Z,1.30
2018-08-20T18:18:33.711Z,1.40
2018-08-20T18:21:02.030Z,1.53
2018-08-20T18:23:31.961Z,1.13
2018-08-20T18:26:00.310Z,1.03
2018-08-20T18:28:29.009Z,1.50
2018-08-20T18:31:02.707Z,1.30
2018-08-20T18:33:31.200Z,1.40
2018-08-20T18:36:03.913Z,1.70
2018-08-20T18:38:33.166Z,1.37
2018-08-20T18:41:01.512Z,1.60
2018-08-20T18:43:30.021Z,1.30
2018-08-20T18:45:58.385Z,1.17
2018-08-20T18:48:31.006Z,1.83
2018-08-20T18:50:59.426Z,1.53
2018-08-20T18:53:32.648Z,1.53
2018-08-20T18:56:03.822Z,1.30
2018-08-20T18:58:32.676Z,1.20
2018-08-20T19:01:01.195Z,1.20
2018-08-20T19:03:39.014Z,1.10
2018-08-20T19:06:07.391Z,1.07
2018-08-20T19:08:36.508Z,1.03
2018-08-20T19:11:04.901Z,1.20
2018-08-20T19:13:33.381Z,1.23
2018-08-20T19:16:02.449Z,0.90
2018-08-20T19:18:37.063Z,1.33
2018-08-20T19:21:12.351Z,1.10
2018-08-20T19:23:40.850Z,1.00
2018-08-20T19:26:09.234Z,1.20
2018-08-20T19:28:37.636Z,1.10
2018-08-20T19:31:06.613Z,1.10
2018-08-20T19:33:35.067Z,1.00
2018-08-20T19:36:03.499Z,1.30
2018-08-20T19:38:31.906Z,1.37
2018-08-20T19:41:08.717Z,1.00
2018-08-20T19:43:42.380Z,1.10
2018-08-20T19:46:10.757Z,1.03
2018-08-20T19:48:39.103Z,0.97
2018-08-20T19:51:09.355Z,0.90
2018-08-20T19:53:37.726Z,1.03
2018-08-20T19:56:10.801Z,0.90
2018-08-20T19:58:41.382Z,0.90
2018-08-20T20:01:11.865Z,0.90
2018-08-20T20:03:42.741Z,1.13
2018-08-20T20:06:11.072Z,1.10
2018-08-20T20:08:40.029Z,1.23
2018-08-20T20:11:17.446Z,1.10
2018-08-20T20:13:46.894Z,0.90
2018-08-20T20:16:15.267Z,1.27
2018-08-20T20:18:43.597Z,1.17
2018-08-20T20:21:12.032Z,1.17
2018-08-20T20:23:40.467Z,1.10
2018-08-20T20:26:09.540Z,0.90
2018-08-20T20:28:37.957Z,1.27
2018-08-20T20:31:06.553Z,1.30
2018-08-20T20:33:35.699Z,1.10
2018-08-20T20:36:08.228Z,1.00
2018-08-20T20:38:36.698Z,0.90
2018-08-20T20:41:05.759Z,1.10
2018-08-20T20:43:36.392Z,1.03
2018-08-20T20:46:05.597Z,1.13
2018-08-20T20:48:34.049Z,1.10
2018-08-20T20:51:02.474Z,1.40
2018-08-20T20:53:30.847Z,1.20
2018-08-20T20:55:59.205Z,1.37
2018-08-20T20:58:35.381Z,1.20
2018-08-20T21:01:08.146Z,1.93
2018-08-20T21:03:36.720Z,1.63
2018-08-20T21:06:05.873Z,1.80
2018-08-20T21:08:40.066Z,1.80
2018-08-20T21:11:09.663Z,1.60
2018-08-20T21:13:38.100Z,2.10
2018-08-20T21:16:07.807Z,1.77
2018-08-20T21:18:42.672Z,1.80
2018-08-20T21:21:11.056Z,2.40
2018-08-20T21:23:40.504Z,2.00
2018-08-20T21:26:09.268Z,2.10
2018-08-20T21:28:44.156Z,1.90
2018-08-20T21:31:13.284Z,2.27
2018-08-20T21:33:42.445Z,2.20
2018-08-20T21:36:11.370Z,2.33
2018-08-20T21:38:39.749Z,1.97
2018-08-20T21:41:08.187Z,1.90
2018-08-20T21:43:42.012Z,2.70
2018-08-20T21:46:10.870Z,1.63
2018-08-20T21:48:39.706Z,2.27
2018-08-20T21:51:11.378Z,2.60
2018-08-20T21:53:39.846Z,2.17
2018-08-20T21:56:10.385Z,2.10
2018-08-20T21:58:40.299Z,2.37
2018-08-20T22:01:10.379Z,2.13
2018-08-20T22:03:38.972Z,2.90
2018-08-20T22:06:07.383Z,2.63
2018-08-20T22:08:36.047Z,2.17
2018-08-20T22:11:04.609Z,2.70
2018-08-20T22:13:33.061Z,2.73
2018-08-20T22:16:12.023Z,3.03
2018-08-20T22:18:41.590Z,2.77
2018-08-20T22:21:13.322Z,2.50
2018-08-20T22:23:42.443Z,2.50
2018-08-20T22:26:15.086Z,2.73
2018-08-20T22:28:43.587Z,3.07
2018-08-20T22:31:12.134Z,2.73
2018-08-20T22:33:40.538Z,3.17
2018-08-20T22:36:12.780Z,2.93
2018-08-20T22:38:49.289Z,3.00
2018-08-20T22:41:18.849Z,3.27
2018-08-20T22:43:47.483Z,3.27
2018-08-20T22:46:16.049Z,2.63
2018-08-20T22:48:44.508Z,2.90
2018-08-20T22:51:16.959Z,3.17
2018-08-20T22:53:48.540Z,3.43
2018-08-20T22:56:23.909Z,3.93
2018-08-20T22:58:52.543Z,4.40
2018-08-20T23:01:20.964Z,4.40
2018-08-20T23:03:49.320Z,4.20
2018-08-20T23:06:17.663Z,5.13
2018-08-20T23:08:46.073Z,5.57
2018-08-20T23:11:14.457Z,5.30
2018-08-20T23:13:42.863Z,4.90
2018-08-20T23:16:11.170Z,5.73
2018-08-20T23:18:39.514Z,6.83
2018-08-20T23:21:07.897Z,6.70
2018-08-20T23:23:37.225Z,7.00
2018-08-20T23:26:08.174Z,5.87
2018-08-20T23:28:38.406Z,5.53
2018-08-20T23:31:06.825Z,4.43
2018-08-20T23:33:38.952Z,6.53
2018-08-20T23:36:08.914Z,6.00
2018-08-20T23:38:37.350Z,5.20
2018-08-20T23:41:05.769Z,5.67
2018-08-20T23:43:34.168Z,5.47
2018-08-20T23:46:02.490Z,5.13
2018-08-20T23:48:30.776Z,5.20
2018-08-20T23:51:04.320Z,5.97
2018-08-20T23:53:32.613Z,5.77
2018-08-20T23:56:00.936Z,6.07
2018-08-20T23:58:29.216Z,6.30
